sensor_id;sensor_type;location;lat;lon;timestamp;pressure;altitude;pressure_sealevel;temperature;humidity
929;BME280;451;47.988;7.842;2023-05-22T00:07:14;98150.53;;;15.50;100.00
929;BME280;451;47.988;7.842;2023-05-22T00:16:17;98144.84;;;15.46;100.00
929;BME280;451;47.988;7.842;2023-05-22T00:25:22;98094.06;;;15.05;100.00
929;BME280;451;47.988;7.842;2023-05-22T00:34:25;98138.28;;;14.84;100.00
929;BME280;451;47.988;7.842;2023-05-22T00:43:29;98102.25;;;14.44;100.00
929;BME280;451;47.988;7.842;2023-05-22T00:52:34;98156.81;;;14.84;100.00
929;BME280;451;47.988;7.842;2023-05-22T01:01:40;98157.31;;;15.39;100.00
929;BME280;451;47.988;7.842;2023-05-22T01:10:44;98138.75;;;15.39;100.00
929;BME280;451;47.988;7.842;2023-05-22T01:20:04;98062.50;;;14.97;100.00
929;BME280;451;47.988;7.842;2023-05-22T01:29:27;98126.41;;;15.07;100.00
929;BME280;451;47.988;7.842;2023-05-22T01:38:36;98123.78;;;14.93;100.00
929;BME280;451;47.988;7.842;2023-05-22T01:47:39;98149.44;;;15.00;100.00
929;BME280;451;47.988;7.842;2023-05-22T01:56:47;98129.91;;;14.74;100.00
929;BME280;451;47.988;7.842;2023-05-22T02:05:53;98101.25;;;14.38;100.00
929;BME280;451;47.988;7.842;2023-05-22T02:14:59;98132.38;;;14.76;100.00
929;BME280;451;47.988;7.842;2023-05-22T02:24:03;98143.38;;;14.92;100.00
929;BME280;451;47.988;7.842;2023-05-22T02:33:07;98137.19;;;15.12;100.00
929;BME280;451;47.988;7.842;2023-05-22T02:42:12;98122.91;;;15.26;100.00
929;BME280;451;47.988;7.842;2023-05-22T02:51:16;98123.75;;;15.13;100.00
929;BME280;451;47.988;7.842;2023-05-22T03:00:19;98124.97;;;15.24;100.00
929;BME280;451;47.988;7.842;2023-05-22T03:09:24;98103.03;;;14.97;100.00
929;BME280;451;47.988;7.842;2023-05-22T03:18:27;98135.75;;;15.29;100.00
929;BME280;451;47.988;7.842;2023-05-22T03:27:32;98134.06;;;15.48;100.00
929;BME280;451;47.988;7.842;2023-05-22T03:36:36;98138.91;;;15.64;100.00
929;BME280;451;47.988;7.842;2023-05-22T03:45:41;98152.56;;;15.67;100.00
929;BME280;451;47.988;7.842;2023-05-22T03:54:44;98139.47;;;15.79;100.00
929;BME280;451;47.988;7.842;2023-05-22T04:03:51;98130.25;;;15.82;100.00
929;BME280;451;47.988;7.842;2023-05-22T04:12:54;98104.47;;;15.51;100.00
929;BME280;451;47.988;7.842;2023-05-22T04:21:58;98148.34;;;15.98;100.00
929;BME280;451;47.988;7.842;2023-05-22T04:31:01;98168.69;;;16.04;100.00
929;BME280;451;47.988;7.842;2023-05-22T04:40:09;98150.31;;;16.09;100.00
929;BME280;451;47.988;7.842;2023-05-22T04:49:12;98167.47;;;16.69;100.00
929;BME280;451;47.988;7.842;2023-05-22T04:58:16;98181.66;;;17.06;100.00
929;BME280;451;47.988;7.842;2023-05-22T05:07:20;98141.25;;;17.22;100.00
929;BME280;451;47.988;7.842;2023-05-22T05:16:25;98162.66;;;17.82;100.00
929;BME280;451;47.988;7.842;2023-05-22T05:25:28;98149.06;;;17.90;100.00
929;BME280;451;47.988;7.842;2023-05-22T05:34:33;98157.44;;;18.05;100.00
929;BME280;451;47.988;7.842;2023-05-22T05:43:46;98139.63;;;18.36;100.00
929;BME280;451;47.988;7.842;2023-05-22T05:52:50;98179.00;;;18.99;100.00
929;BME280;451;47.988;7.842;2023-05-22T06:01:55;98178.88;;;19.28;100.00
929;BME280;451;47.988;7.842;2023-05-22T06:11:05;97943.44;;;18.71;100.00
929;BME280;451;47.988;7.842;2023-05-22T06:20:13;98128.00;;;20.38;98.39
929;BME280;451;47.988;7.842;2023-05-22T06:29:19;98186.75;;;22.21;91.62
929;BME280;451;47.988;7.842;2023-05-22T06:38:23;98152.34;;;22.07;85.50
929;BME280;451;47.988;7.842;2023-05-22T06:47:29;98143.25;;;22.35;87.68
929;BME280;451;47.988;7.842;2023-05-22T06:56:32;98190.38;;;22.09;85.54
929;BME280;451;47.988;7.842;2023-05-22T07:05:40;98182.34;;;22.63;79.38
929;BME280;451;47.988;7.842;2023-05-22T07:14:45;98177.97;;;22.52;74.02
929;BME280;451;47.988;7.842;2023-05-22T07:23:50;98153.41;;;23.34;73.26
929;BME280;451;47.988;7.842;2023-05-22T07:32:53;98186.41;;;23.35;75.57
929;BME280;451;47.988;7.842;2023-05-22T07:41:58;98185.06;;;23.79;70.49
929;BME280;451;47.988;7.842;2023-05-22T07:51:03;98155.69;;;23.57;67.39
929;BME280;451;47.988;7.842;2023-05-22T08:00:09;98157.41;;;23.84;67.07
929;BME280;451;47.988;7.842;2023-05-22T08:09:14;98170.28;;;23.82;70.53
929;BME280;451;47.988;7.842;2023-05-22T08:18:19;98159.41;;;24.19;67.58
929;BME280;451;47.988;7.842;2023-05-22T08:27:23;98171.41;;;23.86;70.63
929;BME280;451;47.988;7.842;2023-05-22T08:36:28;98174.47;;;23.52;72.20
929;BME280;451;47.988;7.842;2023-05-22T08:45:32;98155.72;;;24.45;71.02
929;BME280;451;47.988;7.842;2023-05-22T08:54:40;98165.13;;;24.83;66.61
929;BME280;451;47.988;7.842;2023-05-22T09:03:44;98141.19;;;24.76;66.86
929;BME280;451;47.988;7.842;2023-05-22T09:13:01;98160.31;;;28.49;52.68
929;BME280;451;47.988;7.842;2023-05-22T09:22:04;98128.00;;;30.63;48.77
929;BME280;451;47.988;7.842;2023-05-22T09:31:09;98138.47;;;31.23;47.19
929;BME280;451;47.988;7.842;2023-05-22T09:40:12;98149.41;;;31.40;45.11
929;BME280;451;47.988;7.842;2023-05-22T09:49:17;98142.69;;;31.94;43.51
929;BME280;451;47.988;7.842;2023-05-22T09:58:23;98144.47;;;29.54;46.42
929;BME280;451;47.988;7.842;2023-05-22T10:07:34;98143.72;;;32.50;41.90
929;BME280;451;47.988;7.842;2023-05-22T10:16:38;98134.28;;;32.30;44.25
929;BME280;451;47.988;7.842;2023-05-22T10:25:43;98080.75;;;31.66;43.38
929;BME280;451;47.988;7.842;2023-05-22T10:34:50;98121.41;;;31.88;43.33
929;BME280;451;47.988;7.842;2023-05-22T10:43:57;98114.03;;;30.34;45.34
929;BME280;451;47.988;7.842;2023-05-22T10:53:21;98048.94;;;32.99;41.51
929;BME280;451;47.988;7.842;2023-05-22T11:02:26;98096.66;;;32.67;41.08
929;BME280;451;47.988;7.842;2023-05-22T11:11:30;98086.22;;;32.69;42.14
929;BME280;451;47.988;7.842;2023-05-22T11:20:36;98104.81;;;29.85;47.15
929;BME280;451;47.988;7.842;2023-05-22T11:29:40;98134.50;;;28.76;48.78
929;BME280;451;47.988;7.842;2023-05-22T11:38:46;98088.72;;;28.28;49.62
929;BME280;451;47.988;7.842;2023-05-22T11:47:49;98141.06;;;27.95;50.90
929;BME280;451;47.988;7.842;2023-05-22T11:56:53;98142.53;;;28.06;51.15
929;BME280;451;47.988;7.842;2023-05-22T12:05:57;98102.19;;;27.48;54.70
929;BME280;451;47.988;7.842;2023-05-22T12:15:04;98129.97;;;27.49;58.96
929;BME280;451;47.988;7.842;2023-05-22T12:24:07;98077.66;;;26.63;64.09
929;BME280;451;47.988;7.842;2023-05-22T12:33:15;98126.28;;;25.60;70.08
929;BME280;451;47.988;7.842;2023-05-22T12:42:18;98123.59;;;25.45;70.98
929;BME280;451;47.988;7.842;2023-05-22T12:51:24;98119.09;;;25.94;65.82
929;BME280;451;47.988;7.842;2023-05-22T13:00:30;98100.56;;;27.71;60.62
929;BME280;451;47.988;7.842;2023-05-22T13:09:37;98081.72;;;30.46;52.78
929;BME280;451;47.988;7.842;2023-05-22T13:18:40;98043.03;;;30.63;47.60
929;BME280;451;47.988;7.842;2023-05-22T13:27:44;97981.84;;;28.12;48.40
929;BME280;451;47.988;7.842;2023-05-22T13:36:47;98062.28;;;29.45;47.65
929;BME280;451;47.988;7.842;2023-05-22T13:45:52;98062.06;;;29.00;47.71
929;BME280;451;47.988;7.842;2023-05-22T13:54:55;98046.16;;;28.66;49.22
929;BME280;451;47.988;7.842;2023-05-22T14:03:59;98052.94;;;29.10;48.74
929;BME280;451;47.988;7.842;2023-05-22T14:13:02;98040.88;;;30.06;46.23
929;BME280;451;47.988;7.842;2023-05-22T14:22:06;98038.53;;;29.91;46.11
929;BME280;451;47.988;7.842;2023-05-22T14:31:10;97991.59;;;30.04;44.53
929;BME280;451;47.988;7.842;2023-05-22T14:40:14;98027.88;;;29.95;46.95
929;BME280;451;47.988;7.842;2023-05-22T14:49:17;98018.06;;;30.30;44.60
929;BME280;451;47.988;7.842;2023-05-22T14:58:22;98035.19;;;29.45;45.11
929;BME280;451;47.988;7.842;2023-05-22T15:07:25;98018.91;;;30.92;43.52
929;BME280;451;47.988;7.842;2023-05-22T15:16:29;98013.78;;;29.57;45.19
929;BME280;451;47.988;7.842;2023-05-22T15:25:32;97989.91;;;31.67;42.15
929;BME280;451;47.988;7.842;2023-05-22T15:34:38;98014.50;;;29.49;46.66
929;BME280;451;47.988;7.842;2023-05-22T15:43:41;97904.78;;;29.60;46.50
929;BME280;451;47.988;7.842;2023-05-22T15:52:46;97995.44;;;29.26;47.32
929;BME280;451;47.988;7.842;2023-05-22T16:01:49;98001.97;;;29.53;45.69
929;BME280;451;47.988;7.842;2023-05-22T16:10:53;97990.22;;;29.44;45.30
929;BME280;451;47.988;7.842;2023-05-22T16:19:59;98003.88;;;29.52;46.52
929;BME280;451;47.988;7.842;2023-05-22T16:29:05;97971.25;;;28.62;45.69
929;BME280;451;47.988;7.842;2023-05-22T16:38:08;97999.69;;;28.45;47.05
929;BME280;451;47.988;7.842;2023-05-22T16:47:14;97973.59;;;28.82;47.60
929;BME280;451;47.988;7.842;2023-05-22T16:56:17;97995.16;;;28.27;47.41
929;BME280;451;47.988;7.842;2023-05-22T17:05:22;97976.91;;;27.44;49.35
929;BME280;451;47.988;7.842;2023-05-22T17:14:27;98038.25;;;27.62;49.82
929;BME280;451;47.988;7.842;2023-05-22T17:23:33;98050.47;;;27.60;49.99
929;BME280;451;47.988;7.842;2023-05-22T17:32:37;98026.03;;;27.04;50.65
929;BME280;451;47.988;7.842;2023-05-22T17:41:42;97968.13;;;26.09;52.12
929;BME280;451;47.988;7.842;2023-05-22T17:50:45;98077.97;;;26.28;55.68
929;BME280;451;47.988;7.842;2023-05-22T17:59:49;98021.81;;;25.52;58.10
929;BME280;451;47.988;7.842;2023-05-22T18:08:52;98062.81;;;25.34;61.07
929;BME280;451;47.988;7.842;2023-05-22T18:17:57;98088.41;;;25.26;62.93
929;BME280;451;47.988;7.842;2023-05-22T18:27:00;98002.22;;;24.11;64.28
929;BME280;451;47.988;7.842;2023-05-22T18:36:05;98042.66;;;23.49;60.77
929;BME280;451;47.988;7.842;2023-05-22T18:45:10;98125.19;;;23.84;61.46
929;BME280;451;47.988;7.842;2023-05-22T18:54:14;98144.81;;;23.37;63.60
929;BME280;451;47.988;7.842;2023-05-22T19:03:18;97760.84;;;20.68;64.87
929;BME280;451;47.988;7.842;2023-05-22T19:12:23;98115.47;;;22.73;66.46
929;BME280;451;47.988;7.842;2023-05-22T19:21:32;98127.66;;;22.59;67.78
929;BME280;451;47.988;7.842;2023-05-22T19:30:36;98172.19;;;22.65;68.63
929;BME280;451;47.988;7.842;2023-05-22T19:39:39;98165.38;;;22.52;70.06
929;BME280;451;47.988;7.842;2023-05-22T19:48:44;98207.75;;;22.29;72.85
929;BME280;451;47.988;7.842;2023-05-22T19:57:46;98101.00;;;21.67;72.58
929;BME280;451;47.988;7.842;2023-05-22T20:06:51;98212.81;;;22.03;74.42
929;BME280;451;47.988;7.842;2023-05-22T20:15:54;98222.09;;;21.96;74.73
929;BME280;451;47.988;7.842;2023-05-22T20:24:59;98225.28;;;21.76;78.14
929;BME280;451;47.988;7.842;2023-05-22T20:34:03;98240.28;;;21.77;78.86
929;BME280;451;47.988;7.842;2023-05-22T20:43:09;98234.44;;;21.42;83.64
929;BME280;451;47.988;7.842;2023-05-22T20:52:14;98194.31;;;20.75;86.51
929;BME280;451;47.988;7.842;2023-05-22T21:01:18;98260.38;;;20.63;90.89
929;BME280;451;47.988;7.842;2023-05-22T21:10:21;98249.22;;;20.26;95.17
929;BME280;451;47.988;7.842;2023-05-22T21:19:26;98270.25;;;20.62;93.57
929;BME280;451;47.988;7.842;2023-05-22T21:28:29;98277.09;;;20.41;95.60
929;BME280;451;47.988;7.842;2023-05-22T21:37:33;98302.94;;;20.52;95.07
929;BME280;451;47.988;7.842;2023-05-22T21:46:36;98300.06;;;20.42;96.64
929;BME280;451;47.988;7.842;2023-05-22T21:55:41;98314.53;;;19.83;100.00
929;BME280;451;47.988;7.842;2023-05-22T22:04:44;98280.69;;;19.49;100.00
929;BME280;451;47.988;7.842;2023-05-22T22:13:48;98334.31;;;19.29;100.00
929;BME280;451;47.988;7.842;2023-05-22T22:22:52;98348.25;;;19.01;100.00
929;BME280;451;47.988;7.842;2023-05-22T22:31:56;98361.19;;;18.86;100.00
929;BME280;451;47.988;7.842;2023-05-22T22:40:59;98264.91;;;18.23;100.00
929;BME280;451;47.988;7.842;2023-05-22T22:50:05;98364.50;;;18.81;100.00
929;BME280;451;47.988;7.842;2023-05-22T22:59:09;98354.31;;;18.78;100.00
929;BME280;451;47.988;7.842;2023-05-22T23:08:13;98352.97;;;18.51;100.00
929;BME280;451;47.988;7.842;2023-05-22T23:17:16;98365.34;;;18.45;100.00
929;BME280;451;47.988;7.842;2023-05-22T23:26:20;98266.50;;;17.69;100.00
929;BME280;451;47.988;7.842;2023-05-22T23:35:23;98355.00;;;18.19;100.00
929;BME280;451;47.988;7.842;2023-05-22T23:44:28;98360.81;;;17.91;100.00
929;BME280;451;47.988;7.842;2023-05-22T23:53:31;98320.84;;;17.55;100.00
